sensor_id;sensor_type;location;lat;lon;timestamp;P1;durP1;ratioP1;P2;durP2;ratioP2
84788;SDS011;75022;50.788;20.620;2024-01-10T00:00:16;179.14999999999998;;;146.13000000000002;;
84788;SDS011;75022;50.788;20.620;2024-01-10T00:10:09;169.31;;;139.42999999999998;;
84788;SDS011;75022;50.788;20.620;2024-01-10T00:20:13;162.20000000000002;;;133.52;;
84788;SDS011;75022;50.788;20.620;2024-01-10T00:30:17;158.18;;;131.7;;
84788;SDS011;75022;50.788;20.620;2024-01-10T00:40:09;153.26000000000002;;;126.78;;
84788;SDS011;75022;50.788;20.620;2024-01-10T00:50:11;148.04;;;123.37;;
84788;SDS011;75022;50.788;20.620;2024-01-10T01:00:06;144.71;;;120.78999999999999;;
84788;SDS011;75022;50.788;20.620;2024-01-10T01:10:17;148.08999999999997;;;122.67;;
84788;SDS011;75022;50.788;20.620;2024-01-10T01:20:02;153.09;;;127.08;;
84788;SDS011;75022;50.788;20.620;2024-01-10T01:30:18;158.7;;;132.4;;
84788;SDS011;75022;50.788;20.620;2024-01-10T01:40:15;163.07000000000002;;;136.10999999999999;;
84788;SDS011;75022;50.788;20.620;2024-01-10T01:50:08;160.66;;;134.0;;
84788;SDS011;75022;50.788;20.620;2024-01-10T02:00:13;156.91;;;132.02;;
84788;SDS011;75022;50.788;20.620;2024-01-10T02:10:02;149.82999999999998;;;124.98;;
84788;SDS011;75022;50.788;20.620;2024-01-10T02:20:12;154.15;;;129.69;;
84788;SDS011;75022;50.788;20.620;2024-01-10T02:30:02;149.34;;;125.25;;
84788;SDS011;75022;50.788;20.620;2024-01-10T02:40:17;148.74;;;124.2;;
84788;SDS011;75022;50.788;20.620;2024-01-10T02:50:10;149.78;;;124.31;;
84788;SDS011;75022;50.788;20.620;2024-01-10T03:00:16;152.2;;;126.74;;
84788;SDS011;75022;50.788;20.620;2024-01-10T03:10:08;157.86;;;131.29;;
84788;SDS011;75022;50.788;20.620;2024-01-10T03:20:03;154.28;;;128.31;;
84788;SDS011;75022;50.788;20.620;2024-01-10T03:30:06;158.69;;;132.77;;
84788;SDS011;75022;50.788;20.620;2024-01-10T03:40:05;162.4;;;136.32000000000002;;
84788;SDS011;75022;50.788;20.620;2024-01-10T03:50:13;163.93;;;136.38000000000002;;
84788;SDS011;75022;50.788;20.620;2024-01-10T04:00:18;160.43;;;133.87;;
84788;SDS011;75022;50.788;20.620;2024-01-10T04:10:16;158.54999999999998;;;132.87;;
84788;SDS011;75022;50.788;20.620;2024-01-10T04:20:13;158.27;;;131.08;;
84788;SDS011;75022;50.788;20.620;2024-01-10T04:30:04;155.45;;;129.01999999999998;;
84788;SDS011;75022;50.788;20.620;2024-01-10T04:40:15;152.48000000000002;;;127.06;;
84788;SDS011;75022;50.788;20.620;2024-01-10T04:50:11;151.70000000000002;;;126.55;;
84788;SDS011;75022;50.788;20.620;2024-01-10T05:00:14;154.26;;;129.14999999999998;;
84788;SDS011;75022;50.788;20.620;2024-01-10T05:10:11;157.09;;;130.78;;
84788;SDS011;75022;50.788;20.620;2024-01-10T05:20:18;163.18;;;134.8;;
84788;SDS011;75022;50.788;20.620;2024-01-10T05:30:19;165.89;;;138.72;;
84788;SDS011;75022;50.788;20.620;2024-01-10T05:40:17;167.67999999999998;;;139.22;;
84788;SDS011;75022;50.788;20.620;2024-01-10T05:50:03;166.25;;;138.61;;
84788;SDS011;75022;50.788;20.620;2024-01-10T06:00:26;164.49;;;136.45999999999998;;
84788;SDS011;75022;50.788;20.620;2024-01-10T06:10:08;162.07999999999998;;;135.14000000000001;;
84788;SDS011;75022;50.788;20.620;2024-01-10T06:20:14;155.91;;;130.47;;
84788;SDS011;75022;50.788;20.620;2024-01-10T06:30:03;156.26;;;130.07;;
84788;SDS011;75022;50.788;20.620;2024-01-10T06:40:12;160.99;;;133.13;;
84788;SDS011;75022;50.788;20.620;2024-01-10T06:50:14;174.67000000000002;;;144.37;;
84788;SDS011;75022;50.788;20.620;2024-01-10T07:00:22;188.75;;;156.31;;
84788;SDS011;75022;50.788;20.620;2024-01-10T07:10:15;204.38000000000002;;;167.78;;
84788;SDS011;75022;50.788;20.620;2024-01-10T07:20:17;215.31;;;177.20000000000002;;
84788;SDS011;75022;50.788;20.620;2024-01-10T07:30:18;224.24;;;182.85;;
84788;SDS011;75022;50.788;20.620;2024-01-10T07:40:18;231.14;;;190.29;;
84788;SDS011;75022;50.788;20.620;2024-01-10T07:50:20;234.82;;;191.69;;
84788;SDS011;75022;50.788;20.620;2024-01-10T08:00:11;232.44000000000003;;;190.42999999999998;;
84788;SDS011;75022;50.788;20.620;2024-01-10T08:10:16;225.34;;;186.5;;
84788;SDS011;75022;50.788;20.620;2024-01-10T08:20:28;222.26999999999998;;;185.56;;
84788;SDS011;75022;50.788;20.620;2024-01-10T08:30:06;223.58;;;186.98;;
84788;SDS011;75022;50.788;20.620;2024-01-10T08:40:02;218.26000000000002;;;181.73;;
84788;SDS011;75022;50.788;20.620;2024-01-10T08:50:17;208.91000000000003;;;175.56;;
84788;SDS011;75022;50.788;20.620;2024-01-10T09:00:17;205.28;;;171.78;;
84788;SDS011;75022;50.788;20.620;2024-01-10T09:10:02;203.25;;;171.48;;
84788;SDS011;75022;50.788;20.620;2024-01-10T09:20:11;197.82;;;168.96;;
84788;SDS011;75022;50.788;20.620;2024-01-10T09:30:26;190.83999999999997;;;162.70999999999998;;
84788;SDS011;75022;50.788;20.620;2024-01-10T09:40:12;184.88;;;158.01999999999998;;
84788;SDS011;75022;50.788;20.620;2024-01-10T09:50:03;179.22;;;153.73;;
84788;SDS011;75022;50.788;20.620;2024-01-10T10:00:03;171.78;;;146.36;;
84788;SDS011;75022;50.788;20.620;2024-01-10T10:10:19;161.27999999999997;;;138.54;;
84788;SDS011;75022;50.788;20.620;2024-01-10T10:20:19;151.28;;;130.81;;
84788;SDS011;75022;50.788;20.620;2024-01-10T10:30:17;138.69;;;119.53;;
84788;SDS011;75022;50.788;20.620;2024-01-10T10:40:19;116.33;;;99.96;;
84788;SDS011;75022;50.788;20.620;2024-01-10T10:50:13;94.89;;;81.85000000000001;;
84788;SDS011;75022;50.788;20.620;2024-01-10T11:00:18;75.53;;;64.97999999999999;;
84788;SDS011;75022;50.788;20.620;2024-01-10T11:10:24;56.49;;;48.04;;
84788;SDS011;75022;50.788;20.620;2024-01-10T11:30:49;29.569999999999997;;;23.73;;
84788;SDS011;75022;50.788;20.620;2024-01-10T11:40:02;28.05;;;22.46;;
84788;SDS011;75022;50.788;20.620;2024-01-10T11:50:32;28.689999999999998;;;22.75;;
84788;SDS011;75022;50.788;20.620;2024-01-10T12:00:22;30.259999999999998;;;23.900000000000002;;
84788;SDS011;75022;50.788;20.620;2024-01-10T12:10:13;30.76;;;24.36;;
84788;SDS011;75022;50.788;20.620;2024-01-10T12:20:03;30.439999999999998;;;24.080000000000002;;
84788;SDS011;75022;50.788;20.620;2024-01-10T12:30:06;30.79;;;24.41;;
84788;SDS011;75022;50.788;20.620;2024-01-10T12:40:07;32.13;;;25.23;;
84788;SDS011;75022;50.788;20.620;2024-01-10T12:50:13;32.61;;;25.85;;
84788;SDS011;75022;50.788;20.620;2024-01-10T13:00:16;33.04;;;26.049999999999997;;
84788;SDS011;75022;50.788;20.620;2024-01-10T13:10:20;33.08;;;26.09;;
84788;SDS011;75022;50.788;20.620;2024-01-10T13:20:20;33.03;;;26.21;;
84788;SDS011;75022;50.788;20.620;2024-01-10T13:30:14;32.77;;;25.95;;
84788;SDS011;75022;50.788;20.620;2024-01-10T13:40:03;33.91;;;26.580000000000002;;
84788;SDS011;75022;50.788;20.620;2024-01-10T13:50:02;36.28;;;28.54;;
84788;SDS011;75022;50.788;20.620;2024-01-10T14:00:26;38.239999999999995;;;29.82;;
84788;SDS011;75022;50.788;20.620;2024-01-10T14:10:16;41.0;;;31.87;;
84788;SDS011;75022;50.788;20.620;2024-01-10T14:20:19;42.97;;;33.47;;
84788;SDS011;75022;50.788;20.620;2024-01-10T14:30:16;46.63;;;36.190000000000005;;
84788;SDS011;75022;50.788;20.620;2024-01-10T14:40:10;48.31;;;37.82;;
84788;SDS011;75022;50.788;20.620;2024-01-10T14:50:02;49.169999999999995;;;39.2;;
84788;SDS011;75022;50.788;20.620;2024-01-10T15:00:19;53.489999999999995;;;43.7;;
84788;SDS011;75022;50.788;20.620;2024-01-10T15:10:05;57.839999999999996;;;48.25;;
84788;SDS011;75022;50.788;20.620;2024-01-10T15:20:17;61.77;;;52.410000000000004;;
84788;SDS011;75022;50.788;20.620;2024-01-10T15:30:17;72.67999999999999;;;61.08;;
84788;SDS011;75022;50.788;20.620;2024-01-10T15:40:12;92.45;;;77.14;;
84788;SDS011;75022;50.788;20.620;2024-01-10T15:50:11;98.72;;;82.48;;
84788;SDS011;75022;50.788;20.620;2024-01-10T16:00:20;104.63;;;87.78;;
84788;SDS011;75022;50.788;20.620;2024-01-10T16:10:15;106.75999999999999;;;90.07000000000001;;
84788;SDS011;75022;50.788;20.620;2024-01-10T16:20:07;109.39;;;91.42;;
84788;SDS011;75022;50.788;20.620;2024-01-10T16:30:05;103.46;;;87.85;;
84788;SDS011;75022;50.788;20.620;2024-01-10T16:40:09;89.7;;;77.75;;
84788;SDS011;75022;50.788;20.620;2024-01-10T16:50:11;89.86999999999999;;;77.03;;
84788;SDS011;75022;50.788;20.620;2024-01-10T17:00:15;85.74000000000001;;;73.91;;
84788;SDS011;75022;50.788;20.620;2024-01-10T17:10:06;85.08;;;73.01;;
84788;SDS011;75022;50.788;20.620;2024-01-10T17:20:14;92.14;;;79.07000000000001;;
84788;SDS011;75022;50.788;20.620;2024-01-10T17:30:20;101.36;;;86.33;;
84788;SDS011;75022;50.788;20.620;2024-01-10T17:40:07;103.35000000000001;;;88.64999999999999;;
84788;SDS011;75022;50.788;20.620;2024-01-10T17:50:16;108.74;;;92.25;;
84788;SDS011;75022;50.788;20.620;2024-01-10T18:00:03;116.85000000000001;;;98.75;;
84788;SDS011;75022;50.788;20.620;2024-01-10T18:10:12;122.64999999999999;;;103.71000000000001;;
84788;SDS011;75022;50.788;20.620;2024-01-10T18:30:07;127.43;;;107.11;;
84788;SDS011;75022;50.788;20.620;2024-01-10T18:40:13;134.13;;;112.03;;
84788;SDS011;75022;50.788;20.620;2024-01-10T19:00:06;136.59;;;113.45;;
84788;SDS011;75022;50.788;20.620;2024-01-10T19:10:06;137.01000000000002;;;113.74;;
84788;SDS011;75022;50.788;20.620;2024-01-10T19:30:21;128.56;;;107.54;;
84788;SDS011;75022;50.788;20.620;2024-01-10T19:40:14;124.6;;;104.30999999999999;;
84788;SDS011;75022;50.788;20.620;2024-01-10T19:50:20;127.77;;;107.11;;
84788;SDS011;75022;50.788;20.620;2024-01-10T20:00:08;131.57;;;110.78999999999999;;
84788;SDS011;75022;50.788;20.620;2024-01-10T20:10:10;137.4;;;114.84;;
84788;SDS011;75022;50.788;20.620;2024-01-10T20:20:15;147.14;;;122.63999999999999;;
84788;SDS011;75022;50.788;20.620;2024-01-10T20:30:11;155.03;;;128.39000000000001;;
84788;SDS011;75022;50.788;20.620;2024-01-10T20:40:13;160.32;;;132.27;;
84788;SDS011;75022;50.788;20.620;2024-01-10T20:50:11;158.07;;;130.76999999999998;;
84788;SDS011;75022;50.788;20.620;2024-01-10T21:20:02;184.54999999999998;;;151.82000000000002;;
84788;SDS011;75022;50.788;20.620;2024-01-10T21:30:12;194.73;;;160.32;;
84788;SDS011;75022;50.788;20.620;2024-01-10T21:40:17;200.92000000000002;;;166.08999999999997;;
84788;SDS011;75022;50.788;20.620;2024-01-10T21:50:12;209.2;;;173.09;;
84788;SDS011;75022;50.788;20.620;2024-01-10T22:00:03;209.47;;;173.67;;
84788;SDS011;75022;50.788;20.620;2024-01-10T22:10:11;198.53;;;162.89000000000001;;
84788;SDS011;75022;50.788;20.620;2024-01-10T22:50:11;149.10000000000002;;;124.25;;
84788;SDS011;75022;50.788;20.620;2024-01-10T23:10:14;156.68;;;129.35000000000002;;
84788;SDS011;75022;50.788;20.620;2024-01-10T23:30:03;177.92000000000002;;;144.53;;
84788;SDS011;75022;50.788;20.620;2024-01-10T23:40:12;179.54;;;145.42000000000002;;
84788;SDS011;75022;50.788;20.620;2024-01-10T23:50:03;171.06;;;137.89;;
